Time;durP1;ratioP1;P1;durP2;ratioP2;P2;SDS_P1;SDS_P2;PMS_P1;PMS_P2;Temp;Humidity;BMP_temperature;BMP_pressure;BME280_temperature;BME280_humidity;BME280_pressure;Samples;Min_cycle;Max_cycle;Signal;HPM_P1;HPM_P2
2023/06/18 00:00:08;;;;;;;10.50;9.50;;;;;;;19.85;45.10;156466.94;5022294;28;20503;-79
2023/06/18 00:02:35;;;;;;;9.63;8.83;;;;;;;19.80;45.03;156453.84;5018410;28;20925;-79
2023/06/18 00:05:01;;;;;;;10.43;9.10;;;;;;;19.75;45.46;156440.81;5012116;28;20469;-79
2023/06/18 00:07:30;;;;;;;10.23;9.03;;;;;;;19.73;45.19;156434.28;4989995;28;20477;-79
2023/06/18 00:09:58;;;;;;;11.47;10.27;;;;;;;19.68;45.85;156421.25;4968613;28;20454;-79
2023/06/18 00:12:24;;;;;;;11.13;9.97;;;;;;;19.66;45.43;156416.06;5005705;28;20782;-79
2023/06/18 00:14:52;;;;;;;10.63;9.60;;;;;;;19.61;45.46;156403.03;4989577;28;20448;-79
2023/06/18 00:17:19;;;;;;;10.73;9.73;;;;;;;19.59;45.98;156397.81;5005036;28;20944;-79
2023/06/18 00:19:45;;;;;;;10.60;9.60;;;;;;;19.56;46.21;156391.31;4982731;28;20532;-78
2023/06/18 00:22:15;;;;;;;11.50;10.50;;;;;;;19.53;45.94;156382.16;4998743;28;20481;-78
2023/06/18 00:24:41;;;;;;;10.30;9.30;;;;;;;19.47;46.41;156366.50;5022580;28;20555;-78
2023/06/18 00:27:09;;;;;;;11.13;10.13;;;;;;;19.41;46.38;156352.16;5021599;28;20572;-78
2023/06/18 00:29:35;;;;;;;10.90;9.63;;;;;;;19.38;46.79;156345.66;4979775;28;20513;-78
2023/06/18 00:32:05;;;;;;;10.77;9.80;;;;;;;19.36;46.62;156339.09;5003421;28;20488;-78
2023/06/18 00:34:33;;;;;;;11.13;10.03;;;;;;;19.35;46.65;156337.78;4990345;28;20444;-79
2023/06/18 00:37:00;;;;;;;10.67;9.67;;;;;;;19.32;46.95;156330.00;4985946;28;20469;-79
2023/06/18 00:39:26;;;;;;;11.53;10.17;;;;;;;19.29;47.08;156322.16;4984141;28;20445;-79
2023/06/18 00:41:53;;;;;;;11.30;10.30;;;;;;;19.26;47.31;156313.03;4980155;28;20462;-79
2023/06/18 00:44:29;;;;;;;12.03;10.83;;;;;;;19.22;47.19;156303.88;4999514;28;20433;-79
2023/06/18 00:46:56;;;;;;;12.83;11.00;;;;;;;19.18;47.68;156292.19;4999572;28;20592;-78
2023/06/18 00:49:24;;;;;;;11.50;9.90;;;;;;;19.10;47.88;156272.63;4987005;28;20897;-79
2023/06/18 00:51:52;;;;;;;11.23;10.00;;;;;;;19.07;47.60;156264.81;5003384;28;20485;-80
2023/06/18 00:54:19;;;;;;;12.23;11.07;;;;;;;19.03;47.81;156253.09;4988785;28;20453;-80
2023/06/18 00:56:50;;;;;;;11.13;10.03;;;;;;;18.99;48.19;156243.97;4986903;28;20461;-80
2023/06/18 00:59:21;;;;;;;12.27;11.10;;;;;;;18.92;48.86;156224.41;5005466;28;20441;-80
2023/06/18 01:01:48;;;;;;;10.93;9.83;;;;;;;18.83;49.16;156202.25;5019290;28;20458;-79
2023/06/18 01:04:15;;;;;;;14.00;10.83;;;;;;;18.77;49.78;156186.66;5003936;28;20478;-80
2023/06/18 01:06:43;;;;;;;12.10;10.80;;;;;;;18.72;50.06;156173.59;5021750;28;20519;-79
2023/06/18 01:09:12;;;;;;;11.27;10.20;;;;;;;18.65;50.69;156155.38;5009826;28;20440;-80
2023/06/18 01:11:40;;;;;;;11.87;10.73;;;;;;;18.60;50.74;156143.66;5001287;28;20469;-80
2023/06/18 01:14:09;;;;;;;11.80;10.50;;;;;;;18.58;50.83;156137.13;5019035;28;20462;-79
2023/06/18 01:16:36;;;;;;;11.90;10.80;;;;;;;18.51;51.83;156118.88;5021646;28;20450;-79
2023/06/18 01:19:04;;;;;;;11.80;10.80;;;;;;;18.46;51.50;156105.81;5019384;28;20996;-80
2023/06/18 01:21:34;;;;;;;11.17;10.10;;;;;;;18.41;51.99;156094.09;4975482;28;20985;-80
2023/06/18 01:24:06;;;;;;;11.87;10.67;;;;;;;18.36;52.46;156079.75;4990623;28;20832;-79
2023/06/18 01:26:33;;;;;;;11.80;10.80;;;;;;;18.31;52.76;156068.06;5020646;28;20458;-79
2023/06/18 01:29:00;;;;;;;11.70;10.70;;;;;;;18.33;52.05;156071.94;5002107;28;20492;-79
2023/06/18 01:31:27;;;;;;;11.67;10.57;;;;;;;18.31;52.40;156066.75;4998961;28;20470;-79
2023/06/18 01:33:54;;;;;;;11.40;10.20;;;;;;;18.25;52.63;156053.72;4980539;28;20465;-79
2023/06/18 01:36:26;;;;;;;12.60;11.40;;;;;;;18.22;52.69;156044.59;5004036;28;20454;-80
2023/06/18 01:38:55;;;;;;;11.83;10.63;;;;;;;18.21;52.88;156043.28;5004454;28;20446;-79
2023/06/18 01:41:26;;;;;;;10.57;9.53;;;;;;;18.18;53.16;156035.50;4993952;28;20862;-79
2023/06/18 01:43:58;;;;;;;12.30;10.97;;;;;;;18.14;52.91;156025.06;4987335;28;20512;-79
2023/06/18 01:46:27;;;;;;;11.33;10.33;;;;;;;18.14;52.70;156025.06;5003418;28;20461;-79
2023/06/18 01:48:56;;;;;;;11.10;10.00;;;;;;;18.11;52.78;156015.94;4972513;28;20509;-79
2023/06/18 01:51:24;;;;;;;10.40;9.40;;;;;;;18.08;53.17;156008.16;5000424;28;20553;-79
2023/06/18 01:53:54;;;;;;;11.20;10.10;;;;;;;18.03;53.10;155996.41;4989036;28;20465;-79
2023/06/18 01:56:23;;;;;;;11.97;10.60;;;;;;;18.02;53.18;155992.53;4989559;28;20468;-79
2023/06/18 01:58:50;;;;;;;11.50;10.40;;;;;;;18.02;53.75;155992.53;4985467;28;20454;-79
2023/06/18 02:01:20;;;;;;;11.80;10.67;;;;;;;18.00;53.81;155988.59;4979881;28;20500;-79
2023/06/18 02:03:47;;;;;;;14.10;11.70;;;;;;;17.95;53.89;155974.31;4986138;28;20437;-79
2023/06/18 02:06:14;;;;;;;12.00;10.83;;;;;;;17.94;53.62;155971.69;5018111;28;20988;-79
2023/06/18 02:08:42;;;;;;;12.40;11.27;;;;;;;17.93;53.44;155970.38;5016751;28;20485;-79
2023/06/18 02:11:09;;;;;;;12.80;11.60;;;;;;;17.92;53.93;155967.78;4987793;28;20476;-79
2023/06/18 02:13:37;;;;;;;13.30;11.97;;;;;;;17.87;54.23;155953.47;4988443;28;20438;-79
2023/06/18 02:16:03;;;;;;;12.03;10.90;;;;;;;17.81;54.49;155939.16;5003827;28;20465;-80
2023/06/18 02:18:31;;;;;;;13.63;10.97;;;;;;;17.80;54.88;155936.53;5001857;28;20543;-79
2023/06/18 02:20:58;;;;;;;12.97;11.70;;;;;;;17.77;54.68;155927.38;5003864;28;20485;-80
2023/06/18 02:23:27;;;;;;;12.63;11.43;;;;;;;17.76;54.88;155926.13;5003461;28;20527;-79
2023/06/18 02:25:56;;;;;;;12.37;11.17;;;;;;;17.73;55.05;155918.31;4984844;28;20462;-79
2023/06/18 02:28:24;;;;;;;14.30;11.20;;;;;;;17.69;55.07;155906.56;4986204;28;20567;-79
2023/06/18 02:30:52;;;;;;;12.50;11.30;;;;;;;17.68;55.29;155903.97;4972484;28;20469;-79
2023/06/18 02:33:18;;;;;;;12.60;11.43;;;;;;;17.62;55.21;155889.66;4989096;28;20520;-79
2023/06/18 02:35:45;;;;;;;12.23;11.10;;;;;;;17.60;55.33;155884.47;4975175;28;20583;-79
2023/06/18 02:38:12;;;;;;;11.93;10.83;;;;;;;17.58;55.29;155880.53;5015342;28;20452;-79
2023/06/18 02:40:38;;;;;;;11.47;10.43;;;;;;;17.57;55.26;155876.66;5004505;28;20442;-79
2023/06/18 02:43:05;;;;;;;11.63;10.50;;;;;;;17.56;55.00;155874.03;5000561;28;20867;-79
2023/06/18 02:45:32;;;;;;;12.90;11.47;;;;;;;17.55;55.37;155872.72;4987929;28;20556;-79
2023/06/18 02:48:00;;;;;;;13.10;11.43;;;;;;;17.54;55.17;155870.16;4989267;28;20532;-79
2023/06/18 02:50:27;;;;;;;13.03;11.80;;;;;;;17.52;55.65;155864.91;4984584;28;20540;-79
2023/06/18 02:52:55;;;;;;;12.87;11.47;;;;;;;17.51;55.88;155860.97;4977869;28;20536;-79
2023/06/18 02:55:22;;;;;;;13.10;11.70;;;;;;;17.48;56.29;155853.16;4997668;28;20468;-79
2023/06/18 02:57:48;;;;;;;13.27;11.87;;;;;;;17.43;57.01;155841.44;4993775;28;20443;-79
2023/06/18 03:00:16;;;;;;;14.00;12.70;;;;;;;17.42;56.68;155837.56;4978528;28;20466;-79
2023/06/18 03:02:45;;;;;;;13.00;11.70;;;;;;;17.39;57.15;155829.75;4987363;28;20468;-79
2023/06/18 03:05:20;;;;;;;13.67;12.20;;;;;;;17.37;57.58;155824.50;4976694;28;20467;-79
2023/06/18 03:07:47;;;;;;;13.13;11.93;;;;;;;17.33;57.58;155815.44;4960166;28;20492;-79
2023/06/18 03:10:14;;;;;;;14.40;13.10;;;;;;;17.30;57.73;155806.28;4981147;28;20515;-79
2023/06/18 03:12:43;;;;;;;13.97;11.60;;;;;;;17.24;58.01;155790.66;4959120;28;20977;-79
2023/06/18 03:15:31;;;;;;;13.40;12.20;;;;;;;17.21;57.82;155784.16;5012481;28;20455;-79
2023/06/18 03:17:58;;;;;;;20.63;12.23;;;;;;;17.20;57.99;155781.59;4982725;28;20805;-79
2023/06/18 03:20:27;;;;;;;13.60;12.30;;;;;;;17.19;57.99;155777.66;5002847;28;20557;-79
2023/06/18 03:22:57;;;;;;;14.23;12.73;;;;;;;17.20;57.92;155781.59;4995658;28;20612;-79
2023/06/18 03:25:23;;;;;;;14.30;12.13;;;;;;;17.18;58.34;155776.41;5010670;28;20469;-79
2023/06/18 03:27:51;;;;;;;11.37;10.43;;;;;;;17.16;58.49;155771.16;4988589;28;20495;-79
2023/06/18 03:30:19;;;;;;;12.33;11.03;;;;;;;17.17;58.55;155772.47;4981596;28;20448;-79
2023/06/18 03:32:46;;;;;;;11.90;10.80;;;;;;;17.16;57.63;155769.84;5015717;28;20453;-79
2023/06/18 03:35:13;;;;;;;12.53;11.20;;;;;;;17.15;58.03;155767.28;5002778;28;20455;-79
2023/06/18 03:37:42;;;;;;;11.53;10.33;;;;;;;17.16;57.33;155769.84;5000233;28;20501;-79
2023/06/18 03:40:10;;;;;;;12.00;10.90;;;;;;;17.18;56.96;155776.41;4988811;28;20828;-79
2023/06/18 03:42:37;;;;;;;13.40;11.40;;;;;;;17.19;57.42;155778.97;4987140;28;20468;-79
2023/06/18 03:45:04;;;;;;;12.70;11.60;;;;;;;17.22;57.44;155785.47;5016320;28;20973;-79
2023/06/18 03:47:31;;;;;;;12.23;11.03;;;;;;;17.24;57.43;155790.66;4993474;28;20544;-79
2023/06/18 03:49:58;;;;;;;12.63;11.30;;;;;;;17.24;57.03;155791.97;4987597;28;20450;-79
2023/06/18 03:52:25;;;;;;;12.63;11.50;;;;;;;17.26;56.89;155795.91;4993256;28;20447;-79
2023/06/18 03:54:53;;;;;;;13.20;11.90;;;;;;;17.30;56.67;155806.28;4972387;28;20458;-79
2023/06/18 03:57:19;;;;;;;13.27;11.80;;;;;;;17.36;56.66;155821.94;5000642;28;20560;-78
2023/06/18 03:59:46;;;;;;;11.47;10.47;;;;;;;17.40;56.57;155832.31;4983362;28;20461;-79
2023/06/18 04:02:15;;;;;;;12.70;11.50;;;;;;;17.43;56.31;155841.44;4998547;28;20481;-79
2023/06/18 04:04:43;;;;;;;12.17;10.83;;;;;;;17.47;56.27;155850.56;4980613;28;20890;-79
2023/06/18 04:07:10;;;;;;;12.80;11.60;;;;;;;17.49;56.17;155857.09;5005076;28;20931;-79
2023/06/18 04:09:37;;;;;;;11.50;10.50;;;;;;;17.60;55.61;155884.47;4997455;28;21031;-79
2023/06/18 04:12:06;;;;;;;11.43;10.33;;;;;;;17.75;54.97;155922.19;5003974;28;20467;-79
2023/06/18 04:14:34;;;;;;;10.80;9.40;;;;;;;17.91;54.27;155965.16;5009398;28;20450;-79
2023/06/18 04:17:01;;;;;;;9.73;8.93;;;;;;;18.06;53.85;156004.22;4999100;28;20915;-79
2023/06/18 04:19:30;;;;;;;10.67;9.63;;;;;;;18.22;53.17;156044.59;5002185;28;20817;-79
2023/06/18 04:21:57;;;;;;;10.53;9.53;;;;;;;18.40;52.07;156090.22;4990424;28;21083;-79
2023/06/18 04:24:23;;;;;;;9.80;8.90;;;;;;;18.59;51.40;156139.72;4989800;28;20457;-79
2023/06/18 04:26:50;;;;;;;9.27;8.43;;;;;;;18.76;51.11;156184.03;4986123;28;20550;-79
2023/06/18 04:29:18;;;;;;;9.77;8.90;;;;;;;18.93;50.82;156227.03;4967803;28;20484;-79
2023/06/18 04:31:46;;;;;;;9.97;9.00;;;;;;;19.09;50.13;156268.75;4982548;28;20458;-79
2023/06/18 04:34:13;;;;;;;9.37;8.37;;;;;;;19.26;49.33;156314.34;4986429;28;20452;-79
2023/06/18 04:36:40;;;;;;;9.27;8.47;;;;;;;19.42;49.22;156356.09;5016495;28;20462;-78
2023/06/18 04:39:08;;;;;;;9.57;8.60;;;;;;;19.60;48.15;156401.72;5005281;28;20461;-78
2023/06/18 04:41:34;;;;;;;10.17;9.20;;;;;;;19.79;48.30;156449.94;4981187;28;20467;-78
2023/06/18 04:44:01;;;;;;;9.57;8.67;;;;;;;19.97;47.65;156496.88;4993279;28;20928;-79
2023/06/18 04:46:30;;;;;;;9.00;8.10;;;;;;;20.18;47.09;156550.34;4969773;28;20466;-79
2023/06/18 04:48:59;;;;;;;8.70;7.90;;;;;;;20.35;46.60;156596.06;4979871;28;20481;-78
2023/06/18 04:51:27;;;;;;;9.67;8.67;;;;;;;20.52;46.26;156640.41;4984406;28;20446;-79
2023/06/18 04:53:53;;;;;;;9.17;8.37;;;;;;;20.69;46.55;156682.16;4975136;28;20542;-79
2023/06/18 04:56:20;;;;;;;9.10;8.23;;;;;;;20.83;45.50;156720.00;5015629;28;20462;-79
2023/06/18 04:58:48;;;;;;;9.83;8.93;;;;;;;20.94;45.40;156748.69;4982119;28;20489;-79
2023/06/18 05:01:15;;;;;;;10.50;9.50;;;;;;;21.02;45.25;156768.28;5007260;28;20449;-79
2023/06/18 05:03:44;;;;;;;10.40;9.50;;;;;;;21.06;45.45;156780.06;4990465;28;20453;-79
2023/06/18 05:06:10;;;;;;;9.33;8.53;;;;;;;21.10;45.35;156789.22;4988174;28;20474;-79
2023/06/18 05:08:37;;;;;;;9.80;8.90;;;;;;;21.10;45.72;156789.22;4994412;28;20901;-79
2023/06/18 05:11:04;;;;;;;10.10;9.13;;;;;;;21.07;45.84;156781.38;5000851;28;20513;-79
2023/06/18 05:13:33;;;;;;;10.27;9.37;;;;;;;20.99;46.45;156760.44;5018067;28;20817;-80
2023/06/18 05:16:00;;;;;;;10.80;9.90;;;;;;;20.87;46.57;156729.09;4986451;28;20464;-80
2023/06/18 05:18:29;;;;;;;10.90;10.00;;;;;;;20.77;46.92;156703.03;5000797;28;20453;-80
2023/06/18 05:20:57;;;;;;;10.73;9.63;;;;;;;20.76;47.26;156701.72;5003779;28;20895;-80
2023/06/18 05:23:25;;;;;;;9.60;8.70;;;;;;;20.82;47.26;156717.38;5002023;28;20458;-80
2023/06/18 05:25:53;;;;;;;9.97;9.10;;;;;;;20.89;47.53;156735.63;4969043;28;20867;-80
2023/06/18 05:28:20;;;;;;;10.77;9.77;;;;;;;21.00;47.45;156764.34;4985173;28;20481;-79
2023/06/18 05:30:47;;;;;;;10.77;9.87;;;;;;;21.09;47.06;156787.91;5000923;28;20468;-80
2023/06/18 05:33:14;;;;;;;10.97;9.97;;;;;;;21.15;47.15;156802.25;5001198;28;20461;-79
2023/06/18 05:35:44;;;;;;;10.17;9.27;;;;;;;21.23;47.63;156823.16;4979829;28;20504;-79
2023/06/18 05:38:12;;;;;;;10.40;9.40;;;;;;;21.38;47.06;156862.28;5016169;28;20450;-78
2023/06/18 05:40:39;;;;;;;11.10;10.10;;;;;;;21.55;46.82;156906.66;4985512;28;20827;-79
2023/06/18 05:43:06;;;;;;;10.33;9.43;;;;;;;21.66;46.56;156935.38;4983600;28;20466;-79
2023/06/18 05:45:41;;;;;;;10.20;9.27;;;;;;;21.70;46.64;156945.84;4983991;28;20443;-79
2023/06/18 05:48:09;;;;;;;11.23;10.20;;;;;;;21.74;46.98;156956.25;4984824;28;20828;-79
2023/06/18 05:50:49;;;;;;;10.57;9.77;;;;;;;21.78;46.63;156966.75;5000828;28;20796;-79
2023/06/18 05:53:17;;;;;;;12.43;11.33;;;;;;;21.89;46.23;156994.19;5018294;28;20939;-80
2023/06/18 05:55:44;;;;;;;11.50;10.50;;;;;;;21.96;46.24;157011.16;4998853;28;21153;-79
2023/06/18 05:58:11;;;;;;;11.40;10.30;;;;;;;22.08;46.64;157043.78;5001969;28;20978;-80
2023/06/18 06:00:39;;;;;;;12.53;11.43;;;;;;;22.30;46.64;157099.94;5000688;28;20549;-80
2023/06/18 06:03:05;;;;;;;12.37;11.17;;;;;;;22.45;46.29;157139.16;4983907;28;20446;-80
2023/06/18 06:05:32;;;;;;;12.13;10.80;;;;;;;22.61;47.00;157180.94;4998688;28;20469;-81
2023/06/18 06:07:59;;;;;;;12.50;11.30;;;;;;;22.70;46.48;157204.50;5001221;28;20475;-80
2023/06/18 06:10:27;;;;;;;12.40;11.33;;;;;;;22.86;46.26;157245.00;4966353;28;20552;-81
2023/06/18 06:12:54;;;;;;;12.80;11.70;;;;;;;23.00;45.82;157282.94;5016401;28;20992;-81
2023/06/18 06:15:22;;;;;;;11.80;10.80;;;;;;;23.16;44.62;157322.13;5000296;28;20453;-81
2023/06/18 06:17:49;;;;;;;11.43;10.33;;;;;;;23.29;44.30;157356.09;4986092;28;20465;-81
2023/06/18 06:20:16;;;;;;;10.27;9.47;;;;;;;23.49;44.43;157408.41;5016472;28;20481;-79
2023/06/18 06:22:42;;;;;;;11.87;10.13;;;;;;;23.62;43.92;157442.38;5001542;28;20871;-79
2023/06/18 06:25:09;;;;;;;11.10;9.90;;;;;;;23.72;43.84;157468.56;5017165;28;20473;-79
2023/06/18 06:27:38;;;;;;;11.13;10.23;;;;;;;23.89;43.61;157513.00;4973593;28;20457;-79
2023/06/18 06:30:06;;;;;;;11.60;10.50;;;;;;;24.04;43.09;157552.22;4983365;28;20861;-79
2023/06/18 06:32:35;;;;;;;10.63;9.63;;;;;;;24.17;42.49;157585.00;4979489;28;21019;-81
2023/06/18 06:35:04;;;;;;;9.97;9.17;;;;;;;24.33;41.81;157625.53;4981046;28;20472;-80
2023/06/18 06:37:33;;;;;;;10.93;9.93;;;;;;;24.44;41.15;157654.25;4997842;28;20548;-81
2023/06/18 06:40:03;;;;;;;10.03;9.13;;;;;;;24.57;40.79;157688.31;5000226;28;20476;-81
2023/06/18 06:42:35;;;;;;;10.77;9.77;;;;;;;24.68;41.32;157717.06;4985089;28;20820;-81
2023/06/18 06:45:22;;;;;;;9.30;8.50;;;;;;;24.90;40.02;157774.69;5000129;28;20469;-80
2023/06/18 06:48:13;;;;;;;9.23;8.53;;;;;;;25.14;38.09;157836.19;4976594;28;20901;-81
2023/06/18 06:51:09;;;;;;;9.87;8.97;;;;;;;25.38;38.08;157900.31;4981053;28;20453;-80
2023/06/18 06:53:42;;;;;;;10.33;9.47;;;;;;;25.49;37.91;157927.84;5003896;28;20468;-81
2023/06/18 06:56:10;;;;;;;9.63;8.63;;;;;;;25.61;37.37;157959.25;5014806;28;20463;-81
2023/06/18 06:58:38;;;;;;;10.30;9.40;;;;;;;25.84;37.27;158018.19;5014643;28;20438;-81
2023/06/18 07:01:06;;;;;;;10.73;9.83;;;;;;;25.99;37.33;158057.44;5000536;28;20559;-81
2023/06/18 07:03:32;;;;;;;13.07;9.67;;;;;;;26.09;36.24;158082.28;5019043;28;20462;-81
2023/06/18 07:05:59;;;;;;;10.00;9.10;;;;;;;26.20;35.53;158112.47;4998439;28;20458;-80
2023/06/18 07:08:26;;;;;;;10.40;9.50;;;;;;;26.29;37.32;158136.03;5015965;28;20485;-80
2023/06/18 07:10:52;;;;;;;9.43;8.73;;;;;;;26.42;35.71;158168.81;5016216;28;21216;-81
2023/06/18 07:13:19;;;;;;;10.10;9.20;;;;;;;26.59;37.09;158214.63;4986481;28;20458;-81
2023/06/18 07:15:45;;;;;;;10.10;9.30;;;;;;;26.78;35.09;158263.13;4974300;28;20524;-81
2023/06/18 07:18:13;;;;;;;10.33;9.23;;;;;;;26.95;34.78;158306.38;5012989;28;20489;-81
2023/06/18 07:20:40;;;;;;;10.20;9.37;;;;;;;27.08;34.06;158341.75;5014578;28;20513;-81
2023/06/18 07:23:10;;;;;;;10.17;9.27;;;;;;;27.09;34.53;158343.03;4983669;28;20544;-82
2023/06/18 07:25:36;;;;;;;9.80;9.00;;;;;;;27.24;33.89;158382.38;4983248;28;20867;-80
2023/06/18 07:28:03;;;;;;;10.30;9.40;;;;;;;27.36;36.28;158412.50;4982865;28;20507;-81
2023/06/18 07:30:29;;;;;;;8.90;8.13;;;;;;;27.50;35.19;158449.25;5015746;28;20568;-81
2023/06/18 07:32:56;;;;;;;8.70;7.90;;;;;;;27.59;33.57;158474.13;4998010;28;20465;-81
2023/06/18 07:35:24;;;;;;;9.53;8.73;;;;;;;27.66;33.30;158492.50;4999314;28;20464;-81
2023/06/18 07:37:51;;;;;;;9.37;8.67;;;;;;;27.66;34.07;158491.19;4994679;28;20484;-81
2023/06/18 07:40:17;;;;;;;10.27;8.87;;;;;;;27.80;33.31;158529.16;4978913;28;20481;-81
2023/06/18 07:42:44;;;;;;;9.07;8.37;;;;;;;27.96;33.89;158568.53;4984294;28;20461;-81
2023/06/18 07:45:11;;;;;;;8.63;7.93;;;;;;;28.09;33.25;158602.66;4982005;28;20465;-81
2023/06/18 07:47:37;;;;;;;9.23;8.40;;;;;;;28.21;33.00;158634.09;5015997;28;20458;-81
2023/06/18 07:50:06;;;;;;;9.80;9.00;;;;;;;28.27;31.79;158649.84;4997546;28;21130;-81
2023/06/18 07:52:34;;;;;;;10.40;9.50;;;;;;;28.31;32.42;158660.31;4985431;28;20445;-81
2023/06/18 07:55:01;;;;;;;10.43;9.53;;;;;;;28.54;31.67;158720.63;4983979;28;20458;-81
2023/06/18 07:57:27;;;;;;;9.93;9.13;;;;;;;28.52;32.14;158715.41;4999749;28;20565;-81
2023/06/18 07:59:54;;;;;;;9.20;8.40;;;;;;;28.61;32.16;158739.03;4985164;28;20815;-81
2023/06/18 08:02:20;;;;;;;9.77;8.77;;;;;;;28.68;31.24;158757.41;4999584;28;20951;-81
2023/06/18 08:04:47;;;;;;;9.30;8.50;;;;;;;28.66;31.12;158752.19;5001161;28;20453;-81
2023/06/18 08:07:14;;;;;;;9.00;8.30;;;;;;;28.89;31.33;158812.50;5002638;28;20464;-81
2023/06/18 08:09:42;;;;;;;9.63;8.83;;;;;;;29.11;31.17;158867.59;4999928;28;21054;-81
2023/06/18 08:12:09;;;;;;;9.23;8.53;;;;;;;29.04;32.31;158849.25;5003512;28;20465;-81
2023/06/18 08:14:35;;;;;;;9.17;8.37;;;;;;;28.77;32.54;158779.72;4987109;28;20992;-81
2023/06/18 08:17:02;;;;;;;9.13;8.43;;;;;;;28.86;31.34;158804.63;4988420;28;20523;-81
2023/06/18 08:19:28;;;;;;;8.90;8.10;;;;;;;28.81;31.57;158790.19;4986253;28;20493;-81
2023/06/18 08:21:55;;;;;;;9.13;8.33;;;;;;;28.67;31.30;158754.81;5015753;28;20489;-81
2023/06/18 08:24:21;;;;;;;10.20;9.30;;;;;;;28.72;31.08;158767.94;5003321;28;20454;-81
2023/06/18 08:26:49;;;;;;;8.40;7.70;;;;;;;28.89;30.28;158812.50;4988839;28;20897;-81
2023/06/18 08:29:16;;;;;;;11.47;8.33;;;;;;;29.08;30.50;158859.72;5001708;28;21003;-81
2023/06/18 08:31:43;;;;;;;9.20;8.40;;;;;;;28.99;30.62;158837.44;5003049;28;20489;-81
2023/06/18 08:34:09;;;;;;;9.97;9.07;;;;;;;28.67;31.58;158754.81;5003519;28;20864;-81
2023/06/18 08:36:36;;;;;;;9.10;8.30;;;;;;;28.79;30.76;158786.28;4999946;28;20465;-81
2023/06/18 08:39:02;;;;;;;9.30;8.60;;;;;;;28.83;31.10;158796.75;5001916;28;20477;-81
2023/06/18 08:41:29;;;;;;;8.57;7.87;;;;;;;29.04;30.86;158849.25;5000988;28;20932;-82
2023/06/18 08:43:59;;;;;;;8.70;7.90;;;;;;;29.35;29.87;158931.94;4986995;28;20454;-81
2023/06/18 08:46:27;;;;;;;8.30;7.70;;;;;;;29.38;29.88;158938.50;5001449;28;20458;-81
2023/06/18 08:48:58;;;;;;;10.07;8.77;;;;;;;29.48;30.03;158964.72;5001865;28;20457;-81
2023/06/18 08:51:25;;;;;;;9.27;8.50;;;;;;;29.47;30.05;158962.09;4987801;28;20454;-81
2023/06/18 08:54:03;;;;;;;8.97;8.07;;;;;;;29.62;29.26;159001.50;4986028;28;20466;-81
2023/06/18 08:56:30;;;;;;;9.37;8.57;;;;;;;29.79;29.97;159046.13;4967900;28;20492;-81
2023/06/18 08:58:58;;;;;;;9.13;8.33;;;;;;;29.97;30.68;159093.38;4995366;28;20446;-81
2023/06/18 09:01:26;;;;;;;8.90;8.10;;;;;;;30.18;29.74;159148.50;4966295;28;20477;-81
2023/06/18 09:03:56;;;;;;;8.63;7.93;;;;;;;30.00;27.73;159099.94;4986537;28;20956;-81
2023/06/18 09:06:23;;;;;;;9.60;8.80;;;;;;;29.84;29.14;159057.97;4986491;28;20580;-81
2023/06/18 09:08:50;;;;;;;9.23;8.53;;;;;;;29.92;29.26;159080.25;5000347;28;20445;-80
2023/06/18 09:11:17;;;;;;;9.03;8.33;;;;;;;30.11;28.92;159130.13;5002745;28;20481;-80
2023/06/18 09:13:44;;;;;;;8.63;8.03;;;;;;;30.08;28.51;159122.25;5001088;28;20450;-80
2023/06/18 09:16:13;;;;;;;9.27;8.50;;;;;;;30.19;28.24;159149.81;4984702;28;20461;-80
2023/06/18 09:18:39;;;;;;;9.03;8.23;;;;;;;29.97;26.83;159093.38;5001011;28;20878;-80
2023/06/18 09:21:06;;;;;;;8.00;7.30;;;;;;;29.70;26.39;159022.47;4998754;28;20481;-80
2023/06/18 09:23:33;;;;;;;9.40;8.50;;;;;;;29.92;27.19;159080.25;4998869;28;20488;-80
2023/06/18 09:26:00;;;;;;;9.60;8.27;;;;;;;29.86;28.04;159064.53;4998590;28;20515;-80
2023/06/18 09:28:28;;;;;;;9.67;8.77;;;;;;;30.07;28.38;159119.66;5016973;28;20469;-80
2023/06/18 09:30:58;;;;;;;8.63;7.83;;;;;;;30.23;27.93;159160.34;5018798;28;20898;-81
2023/06/18 09:33:31;;;;;;;9.07;8.30;;;;;;;29.98;29.16;159094.69;5000219;28;20450;-81
2023/06/18 09:36:02;;;;;;;9.77;8.90;;;;;;;29.95;28.75;159086.81;5016254;28;20461;-80
2023/06/18 09:38:36;;;;;;;9.53;8.63;;;;;;;30.04;28.56;159111.78;4969806;28;20457;-80
2023/06/18 09:41:03;;;;;;;9.97;9.07;;;;;;;29.57;29.23;158989.66;4985274;28;20458;-80
2023/06/18 09:43:34;;;;;;;12.33;8.77;;;;;;;29.59;28.90;158993.59;4983208;28;20831;-80
2023/06/18 09:46:02;;;;;;;8.80;8.00;;;;;;;29.73;28.26;159030.38;4982758;28;20520;-80
2023/06/18 09:48:30;;;;;;;8.73;7.97;;;;;;;29.87;28.65;159067.13;4985087;28;20449;-81
2023/06/18 09:50:57;;;;;;;10.50;9.60;;;;;;;29.97;27.65;159093.38;4986724;28;20563;-81
2023/06/18 09:53:24;;;;;;;9.07;8.30;;;;;;;30.00;27.95;159101.25;4984560;28;20915;-80
2023/06/18 09:55:51;;;;;;;8.57;7.87;;;;;;;29.65;27.98;159009.38;4983918;28;20965;-81
2023/06/18 09:58:17;;;;;;;10.33;9.33;;;;;;;29.47;28.17;158962.09;4979741;28;20453;-81
2023/06/18 10:01:02;;;;;;;9.13;8.43;;;;;;;29.36;27.53;158933.25;4995996;28;20516;-81
2023/06/18 10:03:30;;;;;;;9.23;8.43;;;;;;;29.29;27.45;158916.19;4996432;28;20450;-81
2023/06/18 10:05:59;;;;;;;9.10;8.40;;;;;;;29.51;27.84;158972.59;4995391;28;20572;-81
2023/06/18 10:08:26;;;;;;;9.13;8.30;;;;;;;29.79;26.75;159046.13;5010224;28;20458;-81
2023/06/18 10:10:52;;;;;;;8.40;7.70;;;;;;;29.98;26.79;159094.69;4998208;28;20477;-81
2023/06/18 10:13:19;;;;;;;8.80;8.00;;;;;;;30.18;27.22;159148.50;4982801;28;20469;-81
2023/06/18 10:15:46;;;;;;;8.40;7.60;;;;;;;30.33;26.90;159185.28;5010692;28;20465;-82
2023/06/18 10:18:14;;;;;;;9.30;7.37;;;;;;;30.56;26.66;159245.69;5011717;28;20460;-82
2023/06/18 10:20:42;;;;;;;8.47;7.77;;;;;;;30.21;26.74;159155.06;4998643;28;20488;-81
2023/06/18 10:23:09;;;;;;;8.77;7.90;;;;;;;30.02;26.73;159106.50;4996461;28;20868;-81
2023/06/18 10:25:37;;;;;;;8.30;7.70;;;;;;;30.09;27.15;159124.91;4996900;28;20461;-81
2023/06/18 10:28:04;;;;;;;8.27;7.63;;;;;;;30.12;26.43;159131.47;4997427;28;20466;-82
2023/06/18 10:30:30;;;;;;;8.80;7.90;;;;;;;29.91;25.93;159076.34;5011451;28;20942;-82
2023/06/18 10:32:58;;;;;;;8.00;7.40;;;;;;;29.79;26.72;159044.81;5014659;28;20604;-82
2023/06/18 10:35:25;;;;;;;8.40;7.70;;;;;;;29.96;26.40;159090.78;5015063;28;20456;-82
2023/06/18 10:37:54;;;;;;;7.83;7.23;;;;;;;30.27;26.75;159169.50;4982215;28;20540;-83
2023/06/18 10:40:21;;;;;;;7.87;7.27;;;;;;;30.52;26.34;159236.53;4981670;28;20452;-82
2023/06/18 10:42:48;;;;;;;8.57;7.77;;;;;;;30.76;26.36;159298.25;4983371;28;20833;-83
2023/06/18 10:45:16;;;;;;;8.50;7.80;;;;;;;30.94;26.21;159345.56;4984280;28;20984;-82
2023/06/18 10:47:43;;;;;;;8.63;7.83;;;;;;;30.81;25.83;159311.38;4997778;28;20454;-80
2023/06/18 10:50:12;;;;;;;10.03;8.37;;;;;;;30.59;26.24;159254.91;5015469;28;21032;-80
2023/06/18 10:52:39;;;;;;;8.30;7.50;;;;;;;30.50;25.86;159229.97;4982421;28;20544;-81
2023/06/18 10:55:08;;;;;;;7.20;6.70;;;;;;;30.46;26.40;159219.44;4998759;28;20461;-81
2023/06/18 10:57:37;;;;;;;8.97;8.27;;;;;;;29.84;27.36;159059.25;4999513;28;20461;-80
2023/06/18 11:00:15;;;;;;;9.20;8.43;;;;;;;29.57;27.62;158988.38;5015363;28;20442;-81
2023/06/18 11:02:41;;;;;;;8.73;8.13;;;;;;;29.22;27.88;158896.50;5016433;28;20531;-81
2023/06/18 11:05:15;;;;;;;8.07;7.47;;;;;;;29.34;26.12;158927.97;4984616;28;20454;-81
2023/06/18 11:07:42;;;;;;;7.50;6.90;;;;;;;29.51;27.09;158972.59;4981261;28;20453;-81
2023/06/18 11:10:11;;;;;;;8.43;7.73;;;;;;;29.87;27.39;159067.13;4982688;28;21791;-81
2023/06/18 11:12:39;;;;;;;7.63;6.60;;;;;;;30.18;25.02;159147.22;4984545;28;20465;-80
2023/06/18 11:15:23;;;;;;;7.63;7.03;;;;;;;30.23;24.91;159159.03;4983377;28;20979;-80
2023/06/18 11:17:51;;;;;;;7.30;6.80;;;;;;;30.06;25.64;159117.00;4981015;28;20488;-80
2023/06/18 11:20:19;;;;;;;7.83;7.13;;;;;;;29.84;26.49;159057.97;4981628;28;20477;-81